sensor_id;sensor_type;location;lat;lon;timestamp;P1;durP1;ratioP1;P2;durP2;ratioP2
21878;SDS011;27908;42.708;23.278;2023-12-20T00:00:16;56.23;;;28.80;;
21878;SDS011;27908;42.708;23.278;2023-12-20T00:02:42;67.40;;;30.77;;
21878;SDS011;27908;42.708;23.278;2023-12-20T00:05:12;61.00;;;27.55;;
21878;SDS011;27908;42.708;23.278;2023-12-20T00:07:40;71.53;;;30.40;;
21878;SDS011;27908;42.708;23.278;2023-12-20T00:10:05;64.28;;;30.00;;
21878;SDS011;27908;42.708;23.278;2023-12-20T00:12:32;68.25;;;30.67;;
21878;SDS011;27908;42.708;23.278;2023-12-20T00:14:57;65.05;;;30.88;;
21878;SDS011;27908;42.708;23.278;2023-12-20T00:17:23;57.63;;;27.23;;
21878;SDS011;27908;42.708;23.278;2023-12-20T00:19:48;60.97;;;28.13;;
21878;SDS011;27908;42.708;23.278;2023-12-20T00:22:14;59.43;;;27.53;;
21878;SDS011;27908;42.708;23.278;2023-12-20T00:24:39;67.88;;;27.92;;
21878;SDS011;27908;42.708;23.278;2023-12-20T00:27:05;57.90;;;27.03;;
21878;SDS011;27908;42.708;23.278;2023-12-20T00:29:30;59.53;;;27.53;;
21878;SDS011;27908;42.708;23.278;2023-12-20T00:31:56;55.37;;;26.13;;
21878;SDS011;27908;42.708;23.278;2023-12-20T00:34:21;51.55;;;25.67;;
21878;SDS011;27908;42.708;23.278;2023-12-20T00:36:47;42.53;;;20.30;;
21878;SDS011;27908;42.708;23.278;2023-12-20T00:39:12;50.80;;;24.07;;
21878;SDS011;27908;42.708;23.278;2023-12-20T00:41:38;47.33;;;22.80;;
21878;SDS011;27908;42.708;23.278;2023-12-20T00:44:03;45.03;;;19.50;;
21878;SDS011;27908;42.708;23.278;2023-12-20T00:46:29;51.38;;;24.48;;
21878;SDS011;27908;42.708;23.278;2023-12-20T00:48:54;51.45;;;22.08;;
21878;SDS011;27908;42.708;23.278;2023-12-20T00:51:20;56.93;;;22.90;;
21878;SDS011;27908;42.708;23.278;2023-12-20T00:53:47;50.67;;;20.88;;
21878;SDS011;27908;42.708;23.278;2023-12-20T00:56:14;41.58;;;18.65;;
21878;SDS011;27908;42.708;23.278;2023-12-20T00:58:40;38.47;;;16.20;;
21878;SDS011;27908;42.708;23.278;2023-12-20T01:01:05;37.07;;;16.77;;
21878;SDS011;27908;42.708;23.278;2023-12-20T01:03:31;32.35;;;15.93;;
21878;SDS011;27908;42.708;23.278;2023-12-20T01:05:56;39.20;;;19.10;;
21878;SDS011;27908;42.708;23.278;2023-12-20T01:08:22;42.20;;;19.30;;
21878;SDS011;27908;42.708;23.278;2023-12-20T01:10:48;41.42;;;17.65;;
21878;SDS011;27908;42.708;23.278;2023-12-20T01:13:13;42.77;;;16.67;;
21878;SDS011;27908;42.708;23.278;2023-12-20T01:15:39;39.05;;;18.27;;
21878;SDS011;27908;42.708;23.278;2023-12-20T01:18:04;35.47;;;16.83;;
21878;SDS011;27908;42.708;23.278;2023-12-20T01:20:30;34.50;;;16.60;;
21878;SDS011;27908;42.708;23.278;2023-12-20T01:22:55;41.13;;;16.52;;
21878;SDS011;27908;42.708;23.278;2023-12-20T01:25:21;33.42;;;16.58;;
21878;SDS011;27908;42.708;23.278;2023-12-20T01:27:46;43.50;;;19.50;;
21878;SDS011;27908;42.708;23.278;2023-12-20T01:30:12;42.10;;;19.37;;
21878;SDS011;27908;42.708;23.278;2023-12-20T01:32:37;45.30;;;21.77;;
21878;SDS011;27908;42.708;23.278;2023-12-20T01:35:03;41.43;;;19.17;;
21878;SDS011;27908;42.708;23.278;2023-12-20T01:37:29;40.47;;;18.33;;
21878;SDS011;27908;42.708;23.278;2023-12-20T01:39:54;39.73;;;18.20;;
21878;SDS011;27908;42.708;23.278;2023-12-20T01:42:20;38.27;;;18.20;;
21878;SDS011;27908;42.708;23.278;2023-12-20T01:44:45;43.43;;;18.20;;
21878;SDS011;27908;42.708;23.278;2023-12-20T01:47:10;42.75;;;19.73;;
21878;SDS011;27908;42.708;23.278;2023-12-20T01:49:37;46.05;;;19.30;;
21878;SDS011;27908;42.708;23.278;2023-12-20T01:52:02;43.92;;;20.25;;
21878;SDS011;27908;42.708;23.278;2023-12-20T01:54:28;39.73;;;20.13;;
21878;SDS011;27908;42.708;23.278;2023-12-20T01:56:54;65.40;;;27.48;;
21878;SDS011;27908;42.708;23.278;2023-12-20T01:59:20;54.15;;;24.75;;
21878;SDS011;27908;42.708;23.278;2023-12-20T02:01:46;54.60;;;24.52;;
21878;SDS011;27908;42.708;23.278;2023-12-20T02:04:12;59.77;;;24.50;;
21878;SDS011;27908;42.708;23.278;2023-12-20T02:06:38;52.03;;;25.83;;
21878;SDS011;27908;42.708;23.278;2023-12-20T02:09:05;55.60;;;25.40;;
21878;SDS011;27908;42.708;23.278;2023-12-20T02:11:32;69.10;;;27.95;;
21878;SDS011;27908;42.708;23.278;2023-12-20T02:13:58;62.57;;;25.77;;
21878;SDS011;27908;42.708;23.278;2023-12-20T02:16:23;63.72;;;26.05;;
21878;SDS011;27908;42.708;23.278;2023-12-20T02:18:49;65.33;;;28.00;;
21878;SDS011;27908;42.708;23.278;2023-12-20T02:21:15;59.25;;;25.08;;
21878;SDS011;27908;42.708;23.278;2023-12-20T02:23:40;58.65;;;23.80;;
21878;SDS011;27908;42.708;23.278;2023-12-20T02:26:06;59.70;;;23.90;;
21878;SDS011;27908;42.708;23.278;2023-12-20T02:28:32;50.60;;;24.35;;
21878;SDS011;27908;42.708;23.278;2023-12-20T02:30:58;55.60;;;24.13;;
21878;SDS011;27908;42.708;23.278;2023-12-20T02:33:23;53.60;;;22.60;;
21878;SDS011;27908;42.708;23.278;2023-12-20T02:35:48;58.37;;;22.93;;
21878;SDS011;27908;42.708;23.278;2023-12-20T02:38:15;40.22;;;19.95;;
21878;SDS011;27908;42.708;23.278;2023-12-20T02:40:40;48.97;;;22.13;;
21878;SDS011;27908;42.708;23.278;2023-12-20T02:43:06;56.67;;;23.10;;
21878;SDS011;27908;42.708;23.278;2023-12-20T02:45:31;69.75;;;21.15;;
21878;SDS011;27908;42.708;23.278;2023-12-20T02:47:57;68.07;;;21.63;;
21878;SDS011;27908;42.708;23.278;2023-12-20T02:50:22;64.07;;;18.87;;
21878;SDS011;27908;42.708;23.278;2023-12-20T02:52:48;53.47;;;19.80;;
21878;SDS011;27908;42.708;23.278;2023-12-20T02:55:13;53.13;;;19.83;;
21878;SDS011;27908;42.708;23.278;2023-12-20T02:57:39;50.97;;;19.37;;
21878;SDS011;27908;42.708;23.278;2023-12-20T03:00:07;67.43;;;20.90;;
21878;SDS011;27908;42.708;23.278;2023-12-20T03:02:34;60.92;;;20.70;;
21878;SDS011;27908;42.708;23.278;2023-12-20T03:04:59;59.33;;;19.47;;
21878;SDS011;27908;42.708;23.278;2023-12-20T03:07:25;64.47;;;20.42;;
21878;SDS011;27908;42.708;23.278;2023-12-20T03:09:50;47.57;;;18.40;;
21878;SDS011;27908;42.708;23.278;2023-12-20T03:12:16;54.83;;;20.33;;
21878;SDS011;27908;42.708;23.278;2023-12-20T03:14:41;43.13;;;18.43;;
21878;SDS011;27908;42.708;23.278;2023-12-20T03:17:08;49.38;;;18.13;;
21878;SDS011;27908;42.708;23.278;2023-12-20T03:19:34;38.40;;;17.23;;
21878;SDS011;27908;42.708;23.278;2023-12-20T03:21:59;65.57;;;21.35;;
21878;SDS011;27908;42.708;23.278;2023-12-20T03:24:26;40.77;;;15.40;;
21878;SDS011;27908;42.708;23.278;2023-12-20T03:26:51;44.05;;;16.45;;
21878;SDS011;27908;42.708;23.278;2023-12-20T03:29:17;51.73;;;17.00;;
21878;SDS011;27908;42.708;23.278;2023-12-20T03:31:42;57.67;;;22.83;;
21878;SDS011;27908;42.708;23.278;2023-12-20T03:34:08;49.58;;;21.25;;
21878;SDS011;27908;42.708;23.278;2023-12-20T03:36:33;55.30;;;20.37;;
21878;SDS011;27908;42.708;23.278;2023-12-20T03:38:59;47.20;;;20.03;;
21878;SDS011;27908;42.708;23.278;2023-12-20T03:41:24;52.97;;;21.27;;
21878;SDS011;27908;42.708;23.278;2023-12-20T03:43:50;48.42;;;19.80;;
21878;SDS011;27908;42.708;23.278;2023-12-20T03:46:15;57.30;;;18.93;;
21878;SDS011;27908;42.708;23.278;2023-12-20T03:48:41;55.53;;;20.30;;
21878;SDS011;27908;42.708;23.278;2023-12-20T03:51:06;55.77;;;18.87;;
21878;SDS011;27908;42.708;23.278;2023-12-20T03:53:31;50.75;;;18.48;;
21878;SDS011;27908;42.708;23.278;2023-12-20T03:55:57;44.13;;;17.60;;
21878;SDS011;27908;42.708;23.278;2023-12-20T03:58:22;48.37;;;19.87;;
21878;SDS011;27908;42.708;23.278;2023-12-20T04:00:48;60.28;;;19.58;;
21878;SDS011;27908;42.708;23.278;2023-12-20T04:03:14;53.63;;;20.87;;
21878;SDS011;27908;42.708;23.278;2023-12-20T04:05:40;49.27;;;17.97;;
21878;SDS011;27908;42.708;23.278;2023-12-20T04:08:06;57.05;;;19.00;;
21878;SDS011;27908;42.708;23.278;2023-12-20T04:10:32;52.63;;;19.70;;
21878;SDS011;27908;42.708;23.278;2023-12-20T04:12:57;53.43;;;21.03;;
21878;SDS011;27908;42.708;23.278;2023-12-20T04:15:23;52.00;;;20.27;;
21878;SDS011;27908;42.708;23.278;2023-12-20T04:17:48;52.07;;;21.33;;
21878;SDS011;27908;42.708;23.278;2023-12-20T04:20:14;53.17;;;21.97;;
21878;SDS011;27908;42.708;23.278;2023-12-20T04:22:39;58.43;;;21.83;;
21878;SDS011;27908;42.708;23.278;2023-12-20T04:25:05;63.13;;;21.90;;
21878;SDS011;27908;42.708;23.278;2023-12-20T04:27:30;51.53;;;23.27;;
21878;SDS011;27908;42.708;23.278;2023-12-20T04:29:56;60.23;;;19.90;;
21878;SDS011;27908;42.708;23.278;2023-12-20T04:32:22;63.92;;;20.65;;
21878;SDS011;27908;42.708;23.278;2023-12-20T04:34:47;48.13;;;19.57;;
21878;SDS011;27908;42.708;23.278;2023-12-20T04:37:12;60.60;;;22.90;;
21878;SDS011;27908;42.708;23.278;2023-12-20T04:39:38;80.30;;;21.53;;
21878;SDS011;27908;42.708;23.278;2023-12-20T04:42:03;56.88;;;19.10;;
21878;SDS011;27908;42.708;23.278;2023-12-20T04:44:29;67.80;;;21.57;;
21878;SDS011;27908;42.708;23.278;2023-12-20T04:46:55;44.42;;;17.30;;
21878;SDS011;27908;42.708;23.278;2023-12-20T04:49:21;51.38;;;19.52;;
21878;SDS011;27908;42.708;23.278;2023-12-20T04:51:47;34.60;;;16.65;;
21878;SDS011;27908;42.708;23.278;2023-12-20T04:54:12;73.83;;;23.03;;
21878;SDS011;27908;42.708;23.278;2023-12-20T04:56:38;58.17;;;22.30;;
21878;SDS011;27908;42.708;23.278;2023-12-20T04:59:04;41.40;;;19.23;;
21878;SDS011;27908;42.708;23.278;2023-12-20T05:01:30;47.97;;;20.70;;
21878;SDS011;27908;42.708;23.278;2023-12-20T05:03:56;64.70;;;24.75;;
21878;SDS011;27908;42.708;23.278;2023-12-20T05:06:21;50.30;;;23.63;;
21878;SDS011;27908;42.708;23.278;2023-12-20T05:08:47;60.13;;;22.87;;
21878;SDS011;27908;42.708;23.278;2023-12-20T05:11:12;64.83;;;23.63;;
21878;SDS011;27908;42.708;23.278;2023-12-20T05:13:39;72.03;;;25.83;;
21878;SDS011;27908;42.708;23.278;2023-12-20T05:16:05;64.95;;;23.92;;
21878;SDS011;27908;42.708;23.278;2023-12-20T05:18:30;50.10;;;22.02;;
21878;SDS011;27908;42.708;23.278;2023-12-20T05:20:56;61.97;;;24.23;;
21878;SDS011;27908;42.708;23.278;2023-12-20T05:23:22;74.03;;;26.38;;
21878;SDS011;27908;42.708;23.278;2023-12-20T05:25:47;52.00;;;22.57;;
21878;SDS011;27908;42.708;23.278;2023-12-20T05:28:12;69.93;;;26.20;;
21878;SDS011;27908;42.708;23.278;2023-12-20T05:30:38;31.13;;;13.43;;
21878;SDS011;27908;42.708;23.278;2023-12-20T05:33:03;45.47;;;19.88;;
21878;SDS011;27908;42.708;23.278;2023-12-20T05:35:29;68.47;;;24.73;;
21878;SDS011;27908;42.708;23.278;2023-12-20T05:37:54;36.43;;;16.27;;
21878;SDS011;27908;42.708;23.278;2023-12-20T05:40:20;67.78;;;25.42;;
21878;SDS011;27908;42.708;23.278;2023-12-20T05:42:45;24.73;;;14.10;;
21878;SDS011;27908;42.708;23.278;2023-12-20T05:45:11;50.37;;;17.70;;
21878;SDS011;27908;42.708;23.278;2023-12-20T05:47:36;59.85;;;26.10;;
21878;SDS011;27908;42.708;23.278;2023-12-20T05:50:02;78.43;;;24.52;;
21878;SDS011;27908;42.708;23.278;2023-12-20T05:52:29;59.70;;;25.00;;
21878;SDS011;27908;42.708;23.278;2023-12-20T05:54:54;61.55;;;23.38;;
21878;SDS011;27908;42.708;23.278;2023-12-20T05:57:21;78.00;;;25.35;;
21878;SDS011;27908;42.708;23.278;2023-12-20T05:59:48;88.82;;;25.95;;
21878;SDS011;27908;42.708;23.278;2023-12-20T06:02:13;63.33;;;23.40;;
21878;SDS011;27908;42.708;23.278;2023-12-20T06:04:41;58.23;;;19.93;;
21878;SDS011;27908;42.708;23.278;2023-12-20T06:07:08;34.08;;;17.20;;
21878;SDS011;27908;42.708;23.278;2023-12-20T06:09:33;71.80;;;23.37;;
21878;SDS011;27908;42.708;23.278;2023-12-20T06:11:59;74.07;;;25.73;;
21878;SDS011;27908;42.708;23.278;2023-12-20T06:14:24;60.25;;;21.30;;
21878;SDS011;27908;42.708;23.278;2023-12-20T06:16:50;79.83;;;24.47;;
21878;SDS011;27908;42.708;23.278;2023-12-20T06:19:16;65.70;;;24.13;;
21878;SDS011;27908;42.708;23.278;2023-12-20T06:21:41;60.23;;;22.37;;
21878;SDS011;27908;42.708;23.278;2023-12-20T06:24:07;65.23;;;25.97;;
21878;SDS011;27908;42.708;23.278;2023-12-20T06:26:32;76.57;;;23.10;;
21878;SDS011;27908;42.708;23.278;2023-12-20T06:28:58;63.88;;;24.95;;
21878;SDS011;27908;42.708;23.278;2023-12-20T06:31:23;74.27;;;24.40;;
21878;SDS011;27908;42.708;23.278;2023-12-20T06:33:49;57.23;;;24.27;;
21878;SDS011;27908;42.708;23.278;2023-12-20T06:36:22;65.65;;;26.17;;
21878;SDS011;27908;42.708;23.278;2023-12-20T06:38:48;80.20;;;26.63;;
21878;SDS011;27908;42.708;23.278;2023-12-20T06:41:13;61.77;;;24.17;;
21878;SDS011;27908;42.708;23.278;2023-12-20T06:43:40;81.38;;;26.63;;
21878;SDS011;27908;42.708;23.278;2023-12-20T06:46:06;73.13;;;25.60;;
21878;SDS011;27908;42.708;23.278;2023-12-20T06:48:31;88.47;;;27.53;;
21878;SDS011;27908;42.708;23.278;2023-12-20T06:50:57;72.25;;;26.58;;
21878;SDS011;27908;42.708;23.278;2023-12-20T06:53:25;61.28;;;23.70;;
21878;SDS011;27908;42.708;23.278;2023-12-20T06:55:50;62.63;;;23.20;;
21878;SDS011;27908;42.708;23.278;2023-12-20T06:58:16;65.20;;;25.47;;
21878;SDS011;27908;42.708;23.278;2023-12-20T07:00:41;69.57;;;23.43;;
21878;SDS011;27908;42.708;23.278;2023-12-20T07:03:07;72.70;;;25.02;;
21878;SDS011;27908;42.708;23.278;2023-12-20T07:05:34;60.17;;;21.60;;
21878;SDS011;27908;42.708;23.278;2023-12-20T07:07:59;81.00;;;27.17;;
21878;SDS011;27908;42.708;23.278;2023-12-20T07:10:25;60.77;;;23.00;;
21878;SDS011;27908;42.708;23.278;2023-12-20T07:12:50;56.85;;;21.70;;
21878;SDS011;27908;42.708;23.278;2023-12-20T07:15:16;75.00;;;23.70;;
21878;SDS011;27908;42.708;23.278;2023-12-20T07:17:42;78.05;;;25.50;;
21878;SDS011;27908;42.708;23.278;2023-12-20T07:20:08;78.55;;;23.92;;
21878;SDS011;27908;42.708;23.278;2023-12-20T07:22:36;70.35;;;25.88;;
21878;SDS011;27908;42.708;23.278;2023-12-20T07:25:01;78.05;;;25.40;;
21878;SDS011;27908;42.708;23.278;2023-12-20T07:27:28;61.60;;;23.52;;
21878;SDS011;27908;42.708;23.278;2023-12-20T07:29:54;64.67;;;23.23;;
21878;SDS011;27908;42.708;23.278;2023-12-20T07:32:19;60.17;;;25.57;;
21878;SDS011;27908;42.708;23.278;2023-12-20T07:34:45;58.80;;;25.05;;
21878;SDS011;27908;42.708;23.278;2023-12-20T07:37:10;83.90;;;27.05;;
21878;SDS011;27908;42.708;23.278;2023-12-20T07:39:37;71.22;;;26.23;;
21878;SDS011;27908;42.708;23.278;2023-12-20T07:42:05;75.40;;;27.43;;
21878;SDS011;27908;42.708;23.278;2023-12-20T07:44:30;62.50;;;24.27;;
21878;SDS011;27908;42.708;23.278;2023-12-20T07:46:56;72.47;;;26.37;;
21878;SDS011;27908;42.708;23.278;2023-12-20T07:49:22;89.35;;;27.80;;
21878;SDS011;27908;42.708;23.278;2023-12-20T07:51:48;80.25;;;28.75;;
21878;SDS011;27908;42.708;23.278;2023-12-20T07:54:15;75.67;;;27.33;;
21878;SDS011;27908;42.708;23.278;2023-12-20T07:56:41;79.10;;;27.63;;
21878;SDS011;27908;42.708;23.278;2023-12-20T07:59:06;86.55;;;30.38;;
21878;SDS011;27908;42.708;23.278;2023-12-20T08:01:32;83.63;;;30.60;;
21878;SDS011;27908;42.708;23.278;2023-12-20T08:03:57;89.10;;;31.20;;
21878;SDS011;27908;42.708;23.278;2023-12-20T08:06:22;72.33;;;27.53;;
21878;SDS011;27908;42.708;23.278;2023-12-20T08:08:48;112.53;;;33.38;;
21878;SDS011;27908;42.708;23.278;2023-12-20T08:11:14;87.70;;;31.20;;
21878;SDS011;27908;42.708;23.278;2023-12-20T08:13:39;79.93;;;30.43;;
21878;SDS011;27908;42.708;23.278;2023-12-20T08:16:05;79.75;;;29.67;;
21878;SDS011;27908;42.708;23.278;2023-12-20T08:18:30;83.70;;;29.73;;
21878;SDS011;27908;42.708;23.278;2023-12-20T08:20:56;86.88;;;30.38;;
21878;SDS011;27908;42.708;23.278;2023-12-20T08:23:21;91.40;;;30.70;;
21878;SDS011;27908;42.708;23.278;2023-12-20T08:25:47;95.97;;;33.67;;
21878;SDS011;27908;42.708;23.278;2023-12-20T08:28:13;91.10;;;32.65;;
21878;SDS011;27908;42.708;23.278;2023-12-20T08:30:38;95.40;;;32.40;;
21878;SDS011;27908;42.708;23.278;2023-12-20T08:33:04;106.15;;;36.08;;
21878;SDS011;27908;42.708;23.278;2023-12-20T08:35:29;91.78;;;32.90;;
21878;SDS011;27908;42.708;23.278;2023-12-20T08:37:55;102.90;;;34.63;;
21878;SDS011;27908;42.708;23.278;2023-12-20T08:40:21;98.55;;;32.28;;
21878;SDS011;27908;42.708;23.278;2023-12-20T08:42:46;82.40;;;31.73;;
21878;SDS011;27908;42.708;23.278;2023-12-20T08:45:12;101.17;;;37.17;;
21878;SDS011;27908;42.708;23.278;2023-12-20T08:47:37;105.93;;;37.63;;
21878;SDS011;27908;42.708;23.278;2023-12-20T08:50:03;78.07;;;29.33;;
21878;SDS011;27908;42.708;23.278;2023-12-20T08:52:29;109.07;;;34.63;;
21878;SDS011;27908;42.708;23.278;2023-12-20T08:54:54;108.00;;;36.97;;
21878;SDS011;27908;42.708;23.278;2023-12-20T08:57:20;102.32;;;36.80;;
21878;SDS011;27908;42.708;23.278;2023-12-20T08:59:46;77.93;;;30.00;;
21878;SDS011;27908;42.708;23.278;2023-12-20T09:02:13;114.97;;;34.15;;
21878;SDS011;27908;42.708;23.278;2023-12-20T09:04:39;104.38;;;35.67;;
21878;SDS011;27908;42.708;23.278;2023-12-20T09:07:04;98.27;;;31.67;;
21878;SDS011;27908;42.708;23.278;2023-12-20T09:09:30;116.43;;;38.08;;
21878;SDS011;27908;42.708;23.278;2023-12-20T09:11:57;106.67;;;37.83;;
21878;SDS011;27908;42.708;23.278;2023-12-20T09:14:23;101.70;;;36.17;;
21878;SDS011;27908;42.708;23.278;2023-12-20T09:16:49;106.82;;;36.83;;
21878;SDS011;27908;42.708;23.278;2023-12-20T09:19:16;85.50;;;32.50;;
21878;SDS011;27908;42.708;23.278;2023-12-20T09:21:43;102.40;;;36.92;;
21878;SDS011;27908;42.708;23.278;2023-12-20T09:24:08;95.32;;;35.22;;
21878;SDS011;27908;42.708;23.278;2023-12-20T09:26:34;99.83;;;38.07;;
21878;SDS011;27908;42.708;23.278;2023-12-20T09:29:00;106.25;;;38.58;;
21878;SDS011;27908;42.708;23.278;2023-12-20T09:31:25;103.80;;;39.70;;
21878;SDS011;27908;42.708;23.278;2023-12-20T09:33:51;112.47;;;39.37;;
21878;SDS011;27908;42.708;23.278;2023-12-20T09:36:17;123.68;;;40.28;;
21878;SDS011;27908;42.708;23.278;2023-12-20T09:38:42;115.83;;;41.80;;
21878;SDS011;27908;42.708;23.278;2023-12-20T09:41:08;113.20;;;40.37;;
21878;SDS011;27908;42.708;23.278;2023-12-20T09:43:35;95.22;;;36.45;;
21878;SDS011;27908;42.708;23.278;2023-12-20T09:46:03;110.90;;;39.03;;
21878;SDS011;27908;42.708;23.278;2023-12-20T09:48:32;92.07;;;34.20;;
21878;SDS011;27908;42.708;23.278;2023-12-20T09:50:58;97.10;;;37.78;;
21878;SDS011;27908;42.708;23.278;2023-12-20T09:53:24;123.25;;;44.30;;
21878;SDS011;27908;42.708;23.278;2023-12-20T09:55:54;93.00;;;34.87;;
21878;SDS011;27908;42.708;23.278;2023-12-20T09:58:24;128.05;;;47.10;;
21878;SDS011;27908;42.708;23.278;2023-12-20T10:00:49;128.02;;;46.15;;
21878;SDS011;27908;42.708;23.278;2023-12-20T10:03:16;89.82;;;36.55;;
21878;SDS011;27908;42.708;23.278;2023-12-20T10:05:45;106.83;;;42.40;;
21878;SDS011;27908;42.708;23.278;2023-12-20T10:08:14;130.18;;;46.88;;
21878;SDS011;27908;42.708;23.278;2023-12-20T10:10:39;138.43;;;46.43;;
21878;SDS011;27908;42.708;23.278;2023-12-20T10:13:05;126.85;;;45.92;;
21878;SDS011;27908;42.708;23.278;2023-12-20T10:15:33;107.43;;;41.73;;
21878;SDS011;27908;42.708;23.278;2023-12-20T10:18:00;132.77;;;46.90;;
21878;SDS011;27908;42.708;23.278;2023-12-20T10:20:27;126.05;;;43.75;;
21878;SDS011;27908;42.708;23.278;2023-12-20T10:22:56;126.85;;;45.50;;
21878;SDS011;27908;42.708;23.278;2023-12-20T10:25:22;117.57;;;44.35;;
21878;SDS011;27908;42.708;23.278;2023-12-20T10:27:49;123.90;;;44.70;;
21878;SDS011;27908;42.708;23.278;2023-12-20T10:30:15;111.97;;;40.08;;
21878;SDS011;27908;42.708;23.278;2023-12-20T10:32:41;129.32;;;45.78;;
21878;SDS011;27908;42.708;23.278;2023-12-20T10:35:07;123.43;;;45.93;;
21878;SDS011;27908;42.708;23.278;2023-12-20T10:37:37;95.25;;;38.92;;
21878;SDS011;27908;42.708;23.278;2023-12-20T10:40:03;111.18;;;42.58;;
21878;SDS011;27908;42.708;23.278;2023-12-20T10:42:30;113.22;;;42.45;;
21878;SDS011;27908;42.708;23.278;2023-12-20T10:44:58;131.20;;;50.93;;
21878;SDS011;27908;42.708;23.278;2023-12-20T10:47:24;128.63;;;45.72;;
21878;SDS011;27908;42.708;23.278;2023-12-20T10:49:51;136.05;;;49.05;;
21878;SDS011;27908;42.708;23.278;2023-12-20T10:52:18;319.73;;;116.45;;
21878;SDS011;27908;42.708;23.278;2023-12-20T10:54:47;118.60;;;43.88;;
21878;SDS011;27908;42.708;23.278;2023-12-20T10:57:12;62.67;;;26.23;;
21878;SDS011;27908;42.708;23.278;2023-12-20T10:59:38;109.87;;;43.90;;
21878;SDS011;27908;42.708;23.278;2023-12-20T11:02:05;112.88;;;42.40;;
21878;SDS011;27908;42.708;23.278;2023-12-20T11:04:36;121.40;;;46.63;;
21878;SDS011;27908;42.708;23.278;2023-12-20T11:07:29;126.03;;;46.17;;
21878;SDS011;27908;42.708;23.278;2023-12-20T11:15:21;147.13;;;54.72;;
21878;SDS011;27908;42.708;23.278;2023-12-20T11:17:54;136.15;;;52.72;;
21878;SDS011;27908;42.708;23.278;2023-12-20T11:20:22;121.80;;;48.97;;
21878;SDS011;27908;42.708;23.278;2023-12-20T11:22:54;141.25;;;51.70;;
21878;SDS011;27908;42.708;23.278;2023-12-20T11:25:21;109.55;;;45.95;;
21878;SDS011;27908;42.708;23.278;2023-12-20T11:28:06;120.33;;;44.00;;
21878;SDS011;27908;42.708;23.278;2023-12-20T11:30:40;158.40;;;57.60;;
21878;SDS011;27908;42.708;23.278;2023-12-20T11:33:30;120.82;;;46.25;;
21878;SDS011;27908;42.708;23.278;2023-12-20T11:35:57;130.80;;;47.92;;
21878;SDS011;27908;42.708;23.278;2023-12-20T11:38:24;112.43;;;43.38;;
21878;SDS011;27908;42.708;23.278;2023-12-20T11:40:50;127.90;;;47.50;;
21878;SDS011;27908;42.708;23.278;2023-12-20T11:43:37;116.78;;;49.08;;
21878;SDS011;27908;42.708;23.278;2023-12-20T11:46:04;95.35;;;42.15;;
21878;SDS011;27908;42.708;23.278;2023-12-20T11:48:39;158.35;;;57.60;;
21878;SDS011;27908;42.708;23.278;2023-12-20T11:51:11;154.00;;;56.13;;
21878;SDS011;27908;42.708;23.278;2023-12-20T11:53:38;142.32;;;53.20;;
21878;SDS011;27908;42.708;23.278;2023-12-20T11:56:05;157.18;;;57.30;;
21878;SDS011;27908;42.708;23.278;2023-12-20T11:58:32;93.68;;;40.60;;
21878;SDS011;27908;42.708;23.278;2023-12-20T12:00:57;171.05;;;60.30;;
21878;SDS011;27908;42.708;23.278;2023-12-20T12:03:23;159.27;;;56.07;;
21878;SDS011;27908;42.708;23.278;2023-12-20T12:05:49;158.52;;;59.88;;
21878;SDS011;27908;42.708;23.278;2023-12-20T12:08:15;144.53;;;53.60;;
21878;SDS011;27908;42.708;23.278;2023-12-20T12:10:42;98.72;;;43.90;;
21878;SDS011;27908;42.708;23.278;2023-12-20T12:13:09;112.53;;;47.45;;
21878;SDS011;27908;42.708;23.278;2023-12-20T12:15:35;132.67;;;50.93;;
21878;SDS011;27908;42.708;23.278;2023-12-20T12:18:01;142.07;;;55.83;;
21878;SDS011;27908;42.708;23.278;2023-12-20T12:20:26;143.82;;;53.25;;
21878;SDS011;27908;42.708;23.278;2023-12-20T12:25:25;154.77;;;57.95;;
21878;SDS011;27908;42.708;23.278;2023-12-20T12:27:50;147.10;;;54.80;;
21878;SDS011;27908;42.708;23.278;2023-12-20T12:30:16;128.63;;;50.13;;
21878;SDS011;27908;42.708;23.278;2023-12-20T12:32:43;130.40;;;51.95;;
21878;SDS011;27908;42.708;23.278;2023-12-20T12:35:09;128.20;;;47.55;;
21878;SDS011;27908;42.708;23.278;2023-12-20T12:37:36;123.90;;;48.43;;
21878;SDS011;27908;42.708;23.278;2023-12-20T12:40:04;99.20;;;37.58;;
21878;SDS011;27908;42.708;23.278;2023-12-20T12:42:31;109.38;;;42.05;;
21878;SDS011;27908;42.708;23.278;2023-12-20T12:44:56;74.20;;;34.10;;
21878;SDS011;27908;42.708;23.278;2023-12-20T12:47:22;91.30;;;35.90;;
21878;SDS011;27908;42.708;23.278;2023-12-20T12:49:49;78.63;;;33.33;;
21878;SDS011;27908;42.708;23.278;2023-12-20T12:52:16;50.38;;;23.42;;
21878;SDS011;27908;42.708;23.278;2023-12-20T12:54:41;64.47;;;27.30;;
21878;SDS011;27908;42.708;23.278;2023-12-20T12:57:07;107.45;;;37.75;;
21878;SDS011;27908;42.708;23.278;2023-12-20T12:59:33;87.43;;;33.37;;
21878;SDS011;27908;42.708;23.278;2023-12-20T13:01:59;56.47;;;23.97;;
21878;SDS011;27908;42.708;23.278;2023-12-20T13:04:24;103.90;;;38.27;;
21878;SDS011;27908;42.708;23.278;2023-12-20T13:06:49;122.97;;;43.53;;
21878;SDS011;27908;42.708;23.278;2023-12-20T13:09:15;69.40;;;28.07;;
21878;SDS011;27908;42.708;23.278;2023-12-20T13:11:40;101.20;;;39.08;;
21878;SDS011;27908;42.708;23.278;2023-12-20T13:14:06;110.20;;;40.47;;
21878;SDS011;27908;42.708;23.278;2023-12-20T13:16:35;59.47;;;27.02;;
21878;SDS011;27908;42.708;23.278;2023-12-20T13:19:01;104.43;;;36.63;;
21878;SDS011;27908;42.708;23.278;2023-12-20T13:21:26;111.03;;;40.23;;
21878;SDS011;27908;42.708;23.278;2023-12-20T13:23:52;108.67;;;36.77;;
21878;SDS011;27908;42.708;23.278;2023-12-20T13:26:18;72.25;;;29.60;;
21878;SDS011;27908;42.708;23.278;2023-12-20T13:28:44;111.72;;;38.00;;
21878;SDS011;27908;42.708;23.278;2023-12-20T13:31:09;90.00;;;33.77;;
21878;SDS011;27908;42.708;23.278;2023-12-20T13:33:35;102.07;;;37.63;;
21878;SDS011;27908;42.708;23.278;2023-12-20T13:36:01;96.80;;;32.90;;
21878;SDS011;27908;42.708;23.278;2023-12-20T13:38:26;78.80;;;30.75;;
21878;SDS011;27908;42.708;23.278;2023-12-20T13:40:52;72.73;;;30.97;;
21878;SDS011;27908;42.708;23.278;2023-12-20T13:43:17;120.27;;;37.33;;
21878;SDS011;27908;42.708;23.278;2023-12-20T13:45:46;106.35;;;35.88;;
21878;SDS011;27908;42.708;23.278;2023-12-20T13:48:12;84.43;;;33.20;;
21878;SDS011;27908;42.708;23.278;2023-12-20T13:50:37;101.30;;;36.60;;
21878;SDS011;27908;42.708;23.278;2023-12-20T13:53:02;116.82;;;40.85;;
21878;SDS011;27908;42.708;23.278;2023-12-20T13:55:29;103.13;;;38.07;;
21878;SDS011;27908;42.708;23.278;2023-12-20T13:57:55;99.63;;;37.53;;
21878;SDS011;27908;42.708;23.278;2023-12-20T14:00:22;89.60;;;32.60;;
21878;SDS011;27908;42.708;23.278;2023-12-20T14:02:47;121.35;;;39.80;;
21878;SDS011;27908;42.708;23.278;2023-12-20T14:05:13;128.20;;;47.72;;
21878;SDS011;27908;42.708;23.278;2023-12-20T14:07:42;141.65;;;46.97;;